sensor_id;sensor_type;location;lat;lon;timestamp;P1;durP1;ratioP1;P2;durP2;ratioP2
22778;SDS011;11556;51.194;3.800;2023-07-02T00:02:17;41.13;;;16.35;;
22778;SDS011;11556;51.194;3.800;2023-07-02T00:04:44;39.60;;;16.15;;
22778;SDS011;11556;51.194;3.800;2023-07-02T00:07:09;35.83;;;15.98;;
22778;SDS011;11556;51.194;3.800;2023-07-02T00:09:35;42.58;;;16.33;;
22778;SDS011;11556;51.194;3.800;2023-07-02T00:12:01;40.85;;;17.27;;
22778;SDS011;11556;51.194;3.800;2023-07-02T00:14:27;37.95;;;15.50;;
22778;SDS011;11556;51.194;3.800;2023-07-02T00:16:52;40.50;;;16.45;;
22778;SDS011;11556;51.194;3.800;2023-07-02T00:19:18;41.28;;;16.50;;
22778;SDS011;11556;51.194;3.800;2023-07-02T00:21:44;36.30;;;16.15;;
22778;SDS011;11556;51.194;3.800;2023-07-02T00:24:09;36.92;;;16.05;;
22778;SDS011;11556;51.194;3.800;2023-07-02T00:26:35;37.63;;;17.27;;
22778;SDS011;11556;51.194;3.800;2023-07-02T00:29:02;44.45;;;16.60;;
22778;SDS011;11556;51.194;3.800;2023-07-02T00:31:31;40.50;;;17.35;;
22778;SDS011;11556;51.194;3.800;2023-07-02T00:33:57;39.00;;;18.33;;
22778;SDS011;11556;51.194;3.800;2023-07-02T00:36:22;38.38;;;17.45;;
22778;SDS011;11556;51.194;3.800;2023-07-02T00:38:48;38.60;;;17.70;;
22778;SDS011;11556;51.194;3.800;2023-07-02T00:41:14;43.35;;;16.90;;
22778;SDS011;11556;51.194;3.800;2023-07-02T00:43:40;42.58;;;17.17;;
22778;SDS011;11556;51.194;3.800;2023-07-02T00:46:11;42.35;;;16.60;;
22778;SDS011;11556;51.194;3.800;2023-07-02T00:48:48;48.08;;;17.13;;
22778;SDS011;11556;51.194;3.800;2023-07-02T00:51:27;40.53;;;17.90;;
22778;SDS011;11556;51.194;3.800;2023-07-02T00:53:53;47.83;;;17.15;;
22778;SDS011;11556;51.194;3.800;2023-07-02T00:56:20;37.10;;;16.80;;
22778;SDS011;11556;51.194;3.800;2023-07-02T00:58:48;46.25;;;17.63;;
22778;SDS011;11556;51.194;3.800;2023-07-02T01:01:18;48.22;;;18.05;;
22778;SDS011;11556;51.194;3.800;2023-07-02T01:06:24;43.20;;;16.75;;
22778;SDS011;11556;51.194;3.800;2023-07-02T01:08:52;45.72;;;17.38;;
22778;SDS011;11556;51.194;3.800;2023-07-02T01:11:22;44.67;;;17.38;;
22778;SDS011;11556;51.194;3.800;2023-07-02T01:13:52;44.45;;;16.98;;
22778;SDS011;11556;51.194;3.800;2023-07-02T01:16:20;50.60;;;17.05;;
22778;SDS011;11556;51.194;3.800;2023-07-02T01:18:47;47.60;;;18.05;;
22778;SDS011;11556;51.194;3.800;2023-07-02T01:21:15;40.50;;;17.75;;
22778;SDS011;11556;51.194;3.800;2023-07-02T01:23:41;39.95;;;16.77;;
22778;SDS011;11556;51.194;3.800;2023-07-02T01:26:08;38.28;;;17.30;;
22778;SDS011;11556;51.194;3.800;2023-07-02T01:28:34;43.25;;;18.73;;
22778;SDS011;11556;51.194;3.800;2023-07-02T01:31:02;42.78;;;18.27;;
22778;SDS011;11556;51.194;3.800;2023-07-02T01:33:29;42.45;;;19.25;;
22778;SDS011;11556;51.194;3.800;2023-07-02T01:35:55;40.25;;;17.08;;
22778;SDS011;11556;51.194;3.800;2023-07-02T01:38:20;41.30;;;16.42;;
22778;SDS011;11556;51.194;3.800;2023-07-02T01:40:47;52.75;;;18.48;;
22778;SDS011;11556;51.194;3.800;2023-07-02T01:43:13;45.22;;;17.05;;
22778;SDS011;11556;51.194;3.800;2023-07-02T01:45:38;43.08;;;18.10;;
22778;SDS011;11556;51.194;3.800;2023-07-02T01:48:06;36.50;;;16.15;;
22778;SDS011;11556;51.194;3.800;2023-07-02T01:50:31;47.28;;;17.67;;
22778;SDS011;11556;51.194;3.800;2023-07-02T01:52:57;47.75;;;17.50;;
22778;SDS011;11556;51.194;3.800;2023-07-02T01:55:22;50.47;;;18.98;;
22778;SDS011;11556;51.194;3.800;2023-07-02T01:57:48;41.17;;;17.25;;
22778;SDS011;11556;51.194;3.800;2023-07-02T02:00:14;49.15;;;18.45;;
22778;SDS011;11556;51.194;3.800;2023-07-02T02:02:41;45.85;;;18.42;;
22778;SDS011;11556;51.194;3.800;2023-07-02T02:05:07;41.17;;;17.67;;
22778;SDS011;11556;51.194;3.800;2023-07-02T02:07:33;47.58;;;18.55;;
22778;SDS011;11556;51.194;3.800;2023-07-02T02:10:00;48.67;;;18.55;;
22778;SDS011;11556;51.194;3.800;2023-07-02T02:12:26;46.80;;;18.45;;
22778;SDS011;11556;51.194;3.800;2023-07-02T02:14:53;46.67;;;19.25;;
22778;SDS011;11556;51.194;3.800;2023-07-02T02:17:19;41.03;;;17.92;;
22778;SDS011;11556;51.194;3.800;2023-07-02T02:19:45;43.20;;;18.45;;
22778;SDS011;11556;51.194;3.800;2023-07-02T02:22:10;43.63;;;18.95;;
22778;SDS011;11556;51.194;3.800;2023-07-02T02:24:36;47.95;;;18.25;;
22778;SDS011;11556;51.194;3.800;2023-07-02T02:27:01;43.65;;;18.48;;
22778;SDS011;11556;51.194;3.800;2023-07-02T02:29:27;46.90;;;18.80;;
22778;SDS011;11556;51.194;3.800;2023-07-02T02:31:53;44.85;;;19.05;;
22778;SDS011;11556;51.194;3.800;2023-07-02T02:34:18;44.55;;;18.60;;
22778;SDS011;11556;51.194;3.800;2023-07-02T02:36:44;51.30;;;19.10;;
22778;SDS011;11556;51.194;3.800;2023-07-02T02:39:10;47.40;;;18.63;;
22778;SDS011;11556;51.194;3.800;2023-07-02T02:41:35;43.67;;;17.67;;
22778;SDS011;11556;51.194;3.800;2023-07-02T02:44:01;44.15;;;17.23;;
22778;SDS011;11556;51.194;3.800;2023-07-02T02:46:26;49.75;;;18.40;;
22778;SDS011;11556;51.194;3.800;2023-07-02T02:48:52;44.10;;;17.88;;
22778;SDS011;11556;51.194;3.800;2023-07-02T02:51:18;46.00;;;17.77;;
22778;SDS011;11556;51.194;3.800;2023-07-02T02:53:43;42.33;;;17.95;;
22778;SDS011;11556;51.194;3.800;2023-07-02T02:56:09;40.03;;;17.40;;
22778;SDS011;11556;51.194;3.800;2023-07-02T02:58:34;41.92;;;16.50;;
22778;SDS011;11556;51.194;3.800;2023-07-02T03:01:00;43.67;;;17.48;;
22778;SDS011;11556;51.194;3.800;2023-07-02T03:03:26;42.75;;;17.00;;
22778;SDS011;11556;51.194;3.800;2023-07-02T03:05:52;43.28;;;17.05;;
22778;SDS011;11556;51.194;3.800;2023-07-02T03:08:17;36.97;;;15.80;;
22778;SDS011;11556;51.194;3.800;2023-07-02T03:10:43;39.45;;;16.10;;
22778;SDS011;11556;51.194;3.800;2023-07-02T03:13:09;48.10;;;16.75;;
22778;SDS011;11556;51.194;3.800;2023-07-02T03:15:36;41.42;;;17.10;;
22778;SDS011;11556;51.194;3.800;2023-07-02T03:18:01;43.15;;;16.75;;
22778;SDS011;11556;51.194;3.800;2023-07-02T03:20:27;38.75;;;16.90;;
22778;SDS011;11556;51.194;3.800;2023-07-02T03:22:52;39.40;;;16.40;;
22778;SDS011;11556;51.194;3.800;2023-07-02T03:25:18;43.42;;;16.13;;
22778;SDS011;11556;51.194;3.800;2023-07-02T03:27:43;37.83;;;15.32;;
22778;SDS011;11556;51.194;3.800;2023-07-02T03:30:09;39.95;;;15.65;;
22778;SDS011;11556;51.194;3.800;2023-07-02T03:32:35;40.33;;;15.55;;
22778;SDS011;11556;51.194;3.800;2023-07-02T03:35:00;35.20;;;15.23;;
22778;SDS011;11556;51.194;3.800;2023-07-02T03:37:26;41.28;;;15.32;;
22778;SDS011;11556;51.194;3.800;2023-07-02T03:39:52;35.40;;;13.90;;
22778;SDS011;11556;51.194;3.800;2023-07-02T03:42:17;36.42;;;15.20;;
22778;SDS011;11556;51.194;3.800;2023-07-02T03:44:43;33.63;;;14.45;;
22778;SDS011;11556;51.194;3.800;2023-07-02T03:47:08;37.25;;;14.90;;
22778;SDS011;11556;51.194;3.800;2023-07-02T03:49:34;37.20;;;14.70;;
22778;SDS011;11556;51.194;3.800;2023-07-02T03:52:00;40.30;;;15.00;;
22778;SDS011;11556;51.194;3.800;2023-07-02T03:54:25;40.97;;;15.35;;
22778;SDS011;11556;51.194;3.800;2023-07-02T03:56:51;37.08;;;15.65;;
22778;SDS011;11556;51.194;3.800;2023-07-02T03:59:16;34.08;;;15.20;;
22778;SDS011;11556;51.194;3.800;2023-07-02T04:01:42;39.70;;;15.82;;
22778;SDS011;11556;51.194;3.800;2023-07-02T04:04:08;39.65;;;16.08;;
22778;SDS011;11556;51.194;3.800;2023-07-02T04:06:33;42.80;;;16.15;;
22778;SDS011;11556;51.194;3.800;2023-07-02T04:08:59;38.45;;;16.10;;
22778;SDS011;11556;51.194;3.800;2023-07-02T04:11:25;39.17;;;15.93;;
22778;SDS011;11556;51.194;3.800;2023-07-02T04:13:50;38.35;;;16.48;;
22778;SDS011;11556;51.194;3.800;2023-07-02T04:16:16;37.67;;;15.68;;
22778;SDS011;11556;51.194;3.800;2023-07-02T04:18:41;35.72;;;15.93;;
22778;SDS011;11556;51.194;3.800;2023-07-02T04:21:07;35.95;;;16.52;;
22778;SDS011;11556;51.194;3.800;2023-07-02T04:23:32;44.80;;;17.10;;
22778;SDS011;11556;51.194;3.800;2023-07-02T04:25:58;38.33;;;17.13;;
22778;SDS011;11556;51.194;3.800;2023-07-02T04:28:24;38.85;;;16.45;;
22778;SDS011;11556;51.194;3.800;2023-07-02T04:30:50;42.17;;;16.73;;
22778;SDS011;11556;51.194;3.800;2023-07-02T04:33:17;37.95;;;15.70;;
22778;SDS011;11556;51.194;3.800;2023-07-02T04:35:42;42.25;;;16.40;;
22778;SDS011;11556;51.194;3.800;2023-07-02T04:38:08;38.88;;;16.88;;
22778;SDS011;11556;51.194;3.800;2023-07-02T04:40:34;45.95;;;17.05;;
22778;SDS011;11556;51.194;3.800;2023-07-02T04:42:59;33.83;;;16.63;;
22778;SDS011;11556;51.194;3.800;2023-07-02T04:45:25;35.92;;;15.95;;
22778;SDS011;11556;51.194;3.800;2023-07-02T04:47:52;37.60;;;15.73;;
22778;SDS011;11556;51.194;3.800;2023-07-02T04:50:18;45.53;;;17.30;;
22778;SDS011;11556;51.194;3.800;2023-07-02T04:52:43;36.30;;;16.20;;
22778;SDS011;11556;51.194;3.800;2023-07-02T04:55:09;40.33;;;15.93;;
22778;SDS011;11556;51.194;3.800;2023-07-02T04:57:35;37.63;;;16.35;;
22778;SDS011;11556;51.194;3.800;2023-07-02T05:00:01;37.50;;;15.38;;
22778;SDS011;11556;51.194;3.800;2023-07-02T05:02:28;36.30;;;15.95;;
22778;SDS011;11556;51.194;3.800;2023-07-02T05:04:54;39.28;;;15.40;;
22778;SDS011;11556;51.194;3.800;2023-07-02T05:07:20;36.15;;;15.25;;
22778;SDS011;11556;51.194;3.800;2023-07-02T05:09:45;30.73;;;13.98;;
22778;SDS011;11556;51.194;3.800;2023-07-02T05:12:11;27.52;;;13.65;;
22778;SDS011;11556;51.194;3.800;2023-07-02T05:14:36;32.17;;;14.02;;
22778;SDS011;11556;51.194;3.800;2023-07-02T05:17:03;32.90;;;12.43;;
22778;SDS011;11556;51.194;3.800;2023-07-02T05:19:28;31.23;;;12.70;;
22778;SDS011;11556;51.194;3.800;2023-07-02T05:21:54;26.05;;;10.93;;
22778;SDS011;11556;51.194;3.800;2023-07-02T05:24:19;27.42;;;10.45;;
22778;SDS011;11556;51.194;3.800;2023-07-02T05:26:45;23.20;;;9.80;;
22778;SDS011;11556;51.194;3.800;2023-07-02T05:29:11;21.08;;;8.90;;
22778;SDS011;11556;51.194;3.800;2023-07-02T05:31:38;22.27;;;8.35;;
22778;SDS011;11556;51.194;3.800;2023-07-02T05:34:04;21.92;;;7.80;;
22778;SDS011;11556;51.194;3.800;2023-07-02T05:36:29;17.75;;;6.95;;
22778;SDS011;11556;51.194;3.800;2023-07-02T05:38:55;17.13;;;7.18;;
22778;SDS011;11556;51.194;3.800;2023-07-02T05:41:21;19.75;;;7.13;;
22778;SDS011;11556;51.194;3.800;2023-07-02T05:43:46;14.43;;;5.68;;
22778;SDS011;11556;51.194;3.800;2023-07-02T05:46:12;15.95;;;5.60;;
22778;SDS011;11556;51.194;3.800;2023-07-02T05:48:39;13.75;;;5.90;;
22778;SDS011;11556;51.194;3.800;2023-07-02T05:51:08;15.82;;;5.88;;
22778;SDS011;11556;51.194;3.800;2023-07-02T05:53:33;15.80;;;5.78;;
22778;SDS011;11556;51.194;3.800;2023-07-02T05:55:59;14.43;;;5.30;;
22778;SDS011;11556;51.194;3.800;2023-07-02T05:58:25;16.40;;;5.47;;
22778;SDS011;11556;51.194;3.800;2023-07-02T06:00:50;13.15;;;5.28;;
22778;SDS011;11556;51.194;3.800;2023-07-02T06:03:16;13.88;;;4.60;;
22778;SDS011;11556;51.194;3.800;2023-07-02T06:05:46;14.35;;;4.85;;
22778;SDS011;11556;51.194;3.800;2023-07-02T06:08:15;13.73;;;4.50;;
22778;SDS011;11556;51.194;3.800;2023-07-02T06:10:42;13.82;;;4.93;;
22778;SDS011;11556;51.194;3.800;2023-07-02T06:13:08;9.40;;;4.53;;
22778;SDS011;11556;51.194;3.800;2023-07-02T06:15:34;12.75;;;4.68;;
22778;SDS011;11556;51.194;3.800;2023-07-02T06:17:59;12.60;;;4.65;;
22778;SDS011;11556;51.194;3.800;2023-07-02T06:20:25;12.85;;;4.93;;
22778;SDS011;11556;51.194;3.800;2023-07-02T06:22:50;10.20;;;4.38;;
22778;SDS011;11556;51.194;3.800;2023-07-02T06:25:16;12.60;;;4.70;;
22778;SDS011;11556;51.194;3.800;2023-07-02T06:27:41;16.10;;;4.80;;
22778;SDS011;11556;51.194;3.800;2023-07-02T06:30:07;12.57;;;4.20;;
22778;SDS011;11556;51.194;3.800;2023-07-02T06:32:33;13.10;;;4.80;;
22778;SDS011;11556;51.194;3.800;2023-07-02T06:34:59;13.00;;;4.68;;
22778;SDS011;11556;51.194;3.800;2023-07-02T06:37:24;10.38;;;4.20;;
22778;SDS011;11556;51.194;3.800;2023-07-02T06:39:50;11.27;;;4.22;;
22778;SDS011;11556;51.194;3.800;2023-07-02T06:42:15;10.20;;;4.22;;
22778;SDS011;11556;51.194;3.800;2023-07-02T06:44:41;12.00;;;4.25;;
22778;SDS011;11556;51.194;3.800;2023-07-02T06:47:13;14.43;;;4.20;;
22778;SDS011;11556;51.194;3.800;2023-07-02T06:49:38;10.30;;;4.07;;
22778;SDS011;11556;51.194;3.800;2023-07-02T06:52:04;12.43;;;4.63;;
22778;SDS011;11556;51.194;3.800;2023-07-02T06:54:30;14.75;;;4.35;;
22778;SDS011;11556;51.194;3.800;2023-07-02T06:56:55;10.50;;;4.00;;
22778;SDS011;11556;51.194;3.800;2023-07-02T06:59:21;13.93;;;4.07;;
22778;SDS011;11556;51.194;3.800;2023-07-02T07:01:47;9.00;;;4.13;;
22778;SDS011;11556;51.194;3.800;2023-07-02T07:04:14;11.13;;;4.32;;
22778;SDS011;11556;51.194;3.800;2023-07-02T07:06:40;13.23;;;4.53;;
22778;SDS011;11556;51.194;3.800;2023-07-02T07:09:07;14.20;;;4.80;;
22778;SDS011;11556;51.194;3.800;2023-07-02T07:11:33;10.27;;;4.20;;
22778;SDS011;11556;51.194;3.800;2023-07-02T07:13:58;13.32;;;4.45;;
22778;SDS011;11556;51.194;3.800;2023-07-02T07:16:24;9.48;;;3.95;;
22778;SDS011;11556;51.194;3.800;2023-07-02T07:18:50;13.50;;;4.70;;
22778;SDS011;11556;51.194;3.800;2023-07-02T07:21:15;15.32;;;4.65;;
22778;SDS011;11556;51.194;3.800;2023-07-02T07:23:41;13.93;;;4.38;;
22778;SDS011;11556;51.194;3.800;2023-07-02T07:26:07;13.82;;;4.88;;
22778;SDS011;11556;51.194;3.800;2023-07-02T07:28:32;8.95;;;4.57;;
22778;SDS011;11556;51.194;3.800;2023-07-02T07:30:58;13.88;;;4.40;;
22778;SDS011;11556;51.194;3.800;2023-07-02T07:33:24;15.07;;;5.10;;
22778;SDS011;11556;51.194;3.800;2023-07-02T07:35:49;12.57;;;4.28;;
22778;SDS011;11556;51.194;3.800;2023-07-02T07:38:15;11.25;;;4.38;;
22778;SDS011;11556;51.194;3.800;2023-07-02T07:40:42;14.48;;;4.40;;
22778;SDS011;11556;51.194;3.800;2023-07-02T07:43:08;14.15;;;5.00;;
22778;SDS011;11556;51.194;3.800;2023-07-02T07:45:34;12.48;;;4.82;;
22778;SDS011;11556;51.194;3.800;2023-07-02T07:47:59;13.52;;;4.60;;
22778;SDS011;11556;51.194;3.800;2023-07-02T07:50:25;9.73;;;4.60;;
22778;SDS011;11556;51.194;3.800;2023-07-02T07:52:51;16.23;;;5.20;;
22778;SDS011;11556;51.194;3.800;2023-07-02T07:55:17;14.25;;;5.05;;
22778;SDS011;11556;51.194;3.800;2023-07-02T07:57:42;13.68;;;5.07;;
22778;SDS011;11556;51.194;3.800;2023-07-02T08:00:08;13.38;;;5.20;;
22778;SDS011;11556;51.194;3.800;2023-07-02T08:02:35;13.50;;;5.05;;
22778;SDS011;11556;51.194;3.800;2023-07-02T08:05:01;14.00;;;5.55;;
22778;SDS011;11556;51.194;3.800;2023-07-02T08:07:27;14.55;;;5.80;;
22778;SDS011;11556;51.194;3.800;2023-07-02T08:09:53;15.07;;;6.07;;
22778;SDS011;11556;51.194;3.800;2023-07-02T08:12:18;12.85;;;6.03;;
22778;SDS011;11556;51.194;3.800;2023-07-02T08:14:44;19.77;;;7.22;;
22778;SDS011;11556;51.194;3.800;2023-07-02T08:17:10;24.75;;;7.85;;
22778;SDS011;11556;51.194;3.800;2023-07-02T08:19:35;19.80;;;7.63;;
22778;SDS011;11556;51.194;3.800;2023-07-02T08:22:01;20.55;;;8.02;;
22778;SDS011;11556;51.194;3.800;2023-07-02T08:24:27;15.05;;;7.22;;
22778;SDS011;11556;51.194;3.800;2023-07-02T08:26:53;17.25;;;8.27;;
22778;SDS011;11556;51.194;3.800;2023-07-02T08:29:19;17.55;;;8.10;;
22778;SDS011;11556;51.194;3.800;2023-07-02T08:31:44;22.02;;;8.43;;
22778;SDS011;11556;51.194;3.800;2023-07-02T08:34:10;21.10;;;8.00;;
22778;SDS011;11556;51.194;3.800;2023-07-02T08:36:35;15.82;;;8.02;;
22778;SDS011;11556;51.194;3.800;2023-07-02T08:39:01;18.50;;;8.20;;
22778;SDS011;11556;51.194;3.800;2023-07-02T08:41:27;18.48;;;7.97;;
22778;SDS011;11556;51.194;3.800;2023-07-02T08:43:54;21.90;;;7.93;;
22778;SDS011;11556;51.194;3.800;2023-07-02T08:46:21;22.75;;;7.28;;
22778;SDS011;11556;51.194;3.800;2023-07-02T08:48:47;19.73;;;8.05;;
22778;SDS011;11556;51.194;3.800;2023-07-02T08:51:12;21.05;;;8.85;;
22778;SDS011;11556;51.194;3.800;2023-07-02T08:53:38;19.58;;;8.32;;
22778;SDS011;11556;51.194;3.800;2023-07-02T08:56:04;21.92;;;8.45;;
22778;SDS011;11556;51.194;3.800;2023-07-02T08:58:30;18.80;;;8.43;;
22778;SDS011;11556;51.194;3.800;2023-07-02T09:03:32;18.48;;;8.23;;
22778;SDS011;11556;51.194;3.800;2023-07-02T09:05:58;17.40;;;7.60;;
22778;SDS011;11556;51.194;3.800;2023-07-02T09:08:27;21.17;;;8.45;;
22778;SDS011;11556;51.194;3.800;2023-07-02T09:10:53;20.20;;;7.97;;
22778;SDS011;11556;51.194;3.800;2023-07-02T09:13:29;17.27;;;8.00;;
22778;SDS011;11556;51.194;3.800;2023-07-02T09:15:55;18.15;;;7.05;;
22778;SDS011;11556;51.194;3.800;2023-07-02T09:18:21;16.95;;;7.28;;
22778;SDS011;11556;51.194;3.800;2023-07-02T09:20:51;19.05;;;6.45;;
22778;SDS011;11556;51.194;3.800;2023-07-02T09:23:18;15.52;;;6.57;;
22778;SDS011;11556;51.194;3.800;2023-07-02T09:25:44;20.48;;;7.53;;
22778;SDS011;11556;51.194;3.800;2023-07-02T09:28:16;15.20;;;6.47;;
22778;SDS011;11556;51.194;3.800;2023-07-02T09:30:49;14.25;;;5.60;;
22778;SDS011;11556;51.194;3.800;2023-07-02T09:33:27;11.95;;;5.32;;
22778;SDS011;11556;51.194;3.800;2023-07-02T09:35:54;14.80;;;5.80;;
22778;SDS011;11556;51.194;3.800;2023-07-02T09:38:20;16.73;;;6.20;;
22778;SDS011;11556;51.194;3.800;2023-07-02T09:40:47;10.80;;;5.43;;
22778;SDS011;11556;51.194;3.800;2023-07-02T09:43:17;12.88;;;5.25;;
22778;SDS011;11556;51.194;3.800;2023-07-02T09:45:44;14.73;;;5.63;;
22778;SDS011;11556;51.194;3.800;2023-07-02T09:48:14;13.52;;;4.80;;
22778;SDS011;11556;51.194;3.800;2023-07-02T09:50:44;11.05;;;5.00;;
22778;SDS011;11556;51.194;3.800;2023-07-02T09:53:12;10.23;;;4.63;;
22778;SDS011;11556;51.194;3.800;2023-07-02T09:55:38;14.63;;;5.20;;
22778;SDS011;11556;51.194;3.800;2023-07-02T09:58:06;14.75;;;5.65;;
22778;SDS011;11556;51.194;3.800;2023-07-02T10:00:32;10.07;;;5.05;;
22778;SDS011;11556;51.194;3.800;2023-07-02T10:02:58;11.27;;;5.32;;
22778;SDS011;11556;51.194;3.800;2023-07-02T10:05:34;13.02;;;5.40;;
22778;SDS011;11556;51.194;3.800;2023-07-02T10:08:15;9.07;;;4.32;;
22778;SDS011;11556;51.194;3.800;2023-07-02T10:10:47;12.82;;;5.13;;
22778;SDS011;11556;51.194;3.800;2023-07-02T10:13:13;11.93;;;4.70;;
22778;SDS011;11556;51.194;3.800;2023-07-02T10:15:39;9.82;;;4.30;;
22778;SDS011;11556;51.194;3.800;2023-07-02T10:18:05;9.02;;;4.15;;
22778;SDS011;11556;51.194;3.800;2023-07-02T10:20:31;8.80;;;4.50;;
22778;SDS011;11556;51.194;3.800;2023-07-02T10:23:01;13.50;;;4.20;;
22778;SDS011;11556;51.194;3.800;2023-07-02T10:25:31;12.43;;;4.45;;
22778;SDS011;11556;51.194;3.800;2023-07-02T10:27:59;11.98;;;4.57;;
22778;SDS011;11556;51.194;3.800;2023-07-02T10:30:33;9.80;;;4.10;;
22778;SDS011;11556;51.194;3.800;2023-07-02T10:33:07;12.52;;;4.35;;
22778;SDS011;11556;51.194;3.800;2023-07-02T10:35:36;7.95;;;3.67;;
22778;SDS011;11556;51.194;3.800;2023-07-02T10:38:02;10.10;;;4.20;;
22778;SDS011;11556;51.194;3.800;2023-07-02T10:40:29;10.07;;;4.50;;
22778;SDS011;11556;51.194;3.800;2023-07-02T10:42:55;9.82;;;4.07;;
22778;SDS011;11556;51.194;3.800;2023-07-02T10:45:30;8.63;;;4.07;;
22778;SDS011;11556;51.194;3.800;2023-07-02T10:47:57;9.13;;;3.95;;
22778;SDS011;11556;51.194;3.800;2023-07-02T10:50:22;11.48;;;4.30;;
22778;SDS011;11556;51.194;3.800;2023-07-02T10:52:48;8.95;;;4.03;;
22778;SDS011;11556;51.194;3.800;2023-07-02T10:55:20;13.05;;;4.18;;
22778;SDS011;11556;51.194;3.800;2023-07-02T10:57:47;9.52;;;4.30;;
22778;SDS011;11556;51.194;3.800;2023-07-02T11:00:16;13.75;;;4.20;;
22778;SDS011;11556;51.194;3.800;2023-07-02T11:02:42;8.50;;;4.30;;
22778;SDS011;11556;51.194;3.800;2023-07-02T11:05:08;9.02;;;3.83;;
22778;SDS011;11556;51.194;3.800;2023-07-02T11:07:39;8.18;;;3.38;;
22778;SDS011;11556;51.194;3.800;2023-07-02T11:10:05;8.52;;;3.70;;
22778;SDS011;11556;51.194;3.800;2023-07-02T11:12:32;10.35;;;3.85;;
22778;SDS011;11556;51.194;3.800;2023-07-02T11:15:07;7.40;;;3.65;;
22778;SDS011;11556;51.194;3.800;2023-07-02T11:17:37;8.57;;;3.50;;
22778;SDS011;11556;51.194;3.800;2023-07-02T11:20:05;6.90;;;3.38;;
22778;SDS011;11556;51.194;3.800;2023-07-02T11:22:33;7.03;;;3.53;;
22778;SDS011;11556;51.194;3.800;2023-07-02T11:25:16;6.80;;;3.28;;
22778;SDS011;11556;51.194;3.800;2023-07-02T11:27:44;6.82;;;3.00;;
22778;SDS011;11556;51.194;3.800;2023-07-02T11:30:10;8.63;;;3.45;;
22778;SDS011;11556;51.194;3.800;2023-07-02T11:32:46;6.80;;;3.13;;
22778;SDS011;11556;51.194;3.800;2023-07-02T11:35:14;10.88;;;3.35;;
22778;SDS011;11556;51.194;3.800;2023-07-02T11:37:41;7.75;;;3.13;;
22778;SDS011;11556;51.194;3.800;2023-07-02T11:40:06;6.00;;;3.22;;
22778;SDS011;11556;51.194;3.800;2023-07-02T11:42:32;7.50;;;3.40;;
22778;SDS011;11556;51.194;3.800;2023-07-02T11:44:58;6.30;;;3.50;;
22778;SDS011;11556;51.194;3.800;2023-07-02T11:47:24;8.68;;;3.42;;
22778;SDS011;11556;51.194;3.800;2023-07-02T11:49:50;6.38;;;3.40;;
22778;SDS011;11556;51.194;3.800;2023-07-02T11:52:15;5.88;;;3.08;;
22778;SDS011;11556;51.194;3.800;2023-07-02T11:54:41;6.28;;;3.58;;
22778;SDS011;11556;51.194;3.800;2023-07-02T11:57:07;9.82;;;3.50;;
22778;SDS011;11556;51.194;3.800;2023-07-02T11:59:33;7.15;;;3.63;;
22778;SDS011;11556;51.194;3.800;2023-07-02T12:01:59;8.73;;;3.90;;
22778;SDS011;11556;51.194;3.800;2023-07-02T12:04:24;8.65;;;3.97;;
22778;SDS011;11556;51.194;3.800;2023-07-02T12:06:50;6.65;;;4.05;;
22778;SDS011;11556;51.194;3.800;2023-07-02T12:09:16;10.25;;;4.00;;
22778;SDS011;11556;51.194;3.800;2023-07-02T12:11:42;8.98;;;4.00;;
22778;SDS011;11556;51.194;3.800;2023-07-02T12:14:10;7.43;;;4.13;;
22778;SDS011;11556;51.194;3.800;2023-07-02T12:16:36;9.02;;;3.90;;
22778;SDS011;11556;51.194;3.800;2023-07-02T12:19:01;11.05;;;3.88;;
22778;SDS011;11556;51.194;3.800;2023-07-02T12:21:27;9.70;;;3.90;;
22778;SDS011;11556;51.194;3.800;2023-07-02T12:23:52;13.20;;;3.90;;
22778;SDS011;11556;51.194;3.800;2023-07-02T12:26:18;8.20;;;3.80;;
22778;SDS011;11556;51.194;3.800;2023-07-02T12:28:44;9.85;;;4.30;;
22778;SDS011;11556;51.194;3.800;2023-07-02T12:31:09;8.23;;;4.68;;
22778;SDS011;11556;51.194;3.800;2023-07-02T12:33:37;12.52;;;4.47;;
22778;SDS011;11556;51.194;3.800;2023-07-02T12:36:03;14.20;;;4.22;;
22778;SDS011;11556;51.194;3.800;2023-07-02T12:38:29;8.95;;;4.43;;
22778;SDS011;11556;51.194;3.800;2023-07-02T12:40:55;12.13;;;4.60;;
22778;SDS011;11556;51.194;3.800;2023-07-02T12:43:20;9.23;;;4.07;;
22778;SDS011;11556;51.194;3.800;2023-07-02T12:45:46;12.00;;;3.85;;
22778;SDS011;11556;51.194;3.800;2023-07-02T12:48:12;10.38;;;4.63;;
22778;SDS011;11556;51.194;3.800;2023-07-02T12:50:38;9.55;;;4.30;;
22778;SDS011;11556;51.194;3.800;2023-07-02T12:53:04;9.55;;;3.83;;
22778;SDS011;11556;51.194;3.800;2023-07-02T12:55:31;8.77;;;4.50;;
22778;SDS011;11556;51.194;3.800;2023-07-02T12:57:56;5.90;;;3.85;;
22778;SDS011;11556;51.194;3.800;2023-07-02T13:00:22;8.77;;;3.88;;
22778;SDS011;11556;51.194;3.800;2023-07-02T13:02:48;11.13;;;4.63;;
22778;SDS011;11556;51.194;3.800;2023-07-02T13:05:14;13.57;;;4.90;;
22778;SDS011;11556;51.194;3.800;2023-07-02T13:07:39;8.25;;;4.40;;
22778;SDS011;11556;51.194;3.800;2023-07-02T13:10:05;8.23;;;4.47;;
22778;SDS011;11556;51.194;3.800;2023-07-02T13:12:31;9.77;;;4.15;;
22778;SDS011;11556;51.194;3.800;2023-07-02T13:14:57;10.90;;;4.05;;
22778;SDS011;11556;51.194;3.800;2023-07-02T13:17:23;7.68;;;4.18;;
22778;SDS011;11556;51.194;3.800;2023-07-02T13:19:49;8.63;;;3.90;;
22778;SDS011;11556;51.194;3.800;2023-07-02T13:22:15;7.53;;;3.92;;
22778;SDS011;11556;51.194;3.800;2023-07-02T13:24:40;12.05;;;3.95;;
22778;SDS011;11556;51.194;3.800;2023-07-02T13:27:11;11.45;;;4.32;;
22778;SDS011;11556;51.194;3.800;2023-07-02T13:29:39;8.00;;;3.90;;
22778;SDS011;11556;51.194;3.800;2023-07-02T13:32:05;7.53;;;4.22;;
22778;SDS011;11556;51.194;3.800;2023-07-02T13:34:31;8.40;;;4.35;;
22778;SDS011;11556;51.194;3.800;2023-07-02T13:36:57;8.52;;;4.22;;
22778;SDS011;11556;51.194;3.800;2023-07-02T13:39:23;7.97;;;4.20;;
22778;SDS011;11556;51.194;3.800;2023-07-02T13:41:49;10.15;;;4.68;;
22778;SDS011;11556;51.194;3.800;2023-07-02T13:44:15;11.07;;;4.60;;
22778;SDS011;11556;51.194;3.800;2023-07-02T13:46:42;14.77;;;4.97;;
22778;SDS011;11556;51.194;3.800;2023-07-02T13:49:08;11.27;;;4.47;;
22778;SDS011;11556;51.194;3.800;2023-07-02T13:51:35;9.27;;;4.70;;
22778;SDS011;11556;51.194;3.800;2023-07-02T13:54:01;10.93;;;4.75;;
22778;SDS011;11556;51.194;3.800;2023-07-02T13:56:26;13.60;;;5.05;;
22778;SDS011;11556;51.194;3.800;2023-07-02T14:01:20;10.10;;;4.47;;
22778;SDS011;11556;51.194;3.800;2023-07-02T14:03:47;10.05;;;4.65;;
22778;SDS011;11556;51.194;3.800;2023-07-02T14:06:12;12.57;;;4.43;;
22778;SDS011;11556;51.194;3.800;2023-07-02T14:08:38;9.02;;;4.47;;
22778;SDS011;11556;51.194;3.800;2023-07-02T14:11:04;9.75;;;4.22;;
22778;SDS011;11556;51.194;3.800;2023-07-02T14:13:29;12.27;;;4.38;;
22778;SDS011;11556;51.194;3.800;2023-07-02T14:15:55;10.05;;;4.78;;
22778;SDS011;11556;51.194;3.800;2023-07-02T14:18:21;13.40;;;4.72;;
22778;SDS011;11556;51.194;3.800;2023-07-02T14:20:46;10.68;;;4.80;;
22778;SDS011;11556;51.194;3.800;2023-07-02T14:23:12;10.73;;;4.35;;
22778;SDS011;11556;51.194;3.800;2023-07-02T14:25:38;10.95;;;5.18;;
22778;SDS011;11556;51.194;3.800;2023-07-02T14:28:03;14.93;;;4.70;;
22778;SDS011;11556;51.194;3.800;2023-07-02T14:30:29;12.25;;;4.68;;
22778;SDS011;11556;51.194;3.800;2023-07-02T14:32:56;12.70;;;4.55;;
22778;SDS011;11556;51.194;3.800;2023-07-02T14:35:21;11.70;;;5.10;;
22778;SDS011;11556;51.194;3.800;2023-07-02T14:37:51;13.82;;;5.43;;